createdAt,value
2019-03-27T00:04:57.062Z,9.50
2019-03-27T00:10:02.347Z,9.67
2019-03-27T00:15:13.261Z,9.33
2019-03-27T00:20:17.054Z,10.33
2019-03-27T00:25:25.906Z,9.30
2019-03-27T00:30:29.946Z,8.00
2019-03-27T00:35:37.390Z,9.00
2019-03-27T00:40:42.318Z,9.00
2019-03-27T00:45:48.203Z,9.80
2019-03-27T00:50:53.002Z,10.83
2019-03-27T00:56:00.998Z,9.50
2019-03-27T01:01:06.615Z,8.00
2019-03-27T01:06:09.831Z,8.67
2019-03-27T01:11:12.914Z,8.00
2019-03-27T01:16:20.238Z,10.00
2019-03-27T01:21:28.455Z,9.70
2019-03-27T01:26:32.471Z,6.67
2019-03-27T01:31:35.490Z,7.33
2019-03-27T01:36:41.923Z,8.40
2019-03-27T01:41:47.418Z,9.67
2019-03-27T01:46:51.379Z,8.00
2019-03-27T01:51:55.487Z,9.00
2019-03-27T01:56:59.611Z,9.67
2019-03-27T02:02:03.449Z,8.40
2019-03-27T02:07:07.475Z,9.00
2019-03-27T02:12:12.278Z,11.00
2019-03-27T02:17:16.090Z,11.00
2019-03-27T02:22:23.534Z,10.44
2019-03-27T02:27:28.078Z,9.83
2019-03-27T02:32:31.154Z,9.00
2019-03-27T02:37:37.240Z,14.29
2019-03-27T02:42:40.962Z,12.33
2019-03-27T02:47:47.341Z,12.29
2019-03-27T02:52:51.331Z,11.33
2019-03-27T02:57:55.276Z,12.80
2019-03-27T03:02:59.368Z,13.20
2019-03-27T03:08:07.480Z,15.00
2019-03-27T03:13:14.175Z,15.00
2019-03-27T03:18:20.604Z,13.00
2019-03-27T03:23:26.485Z,17.29
2019-03-27T03:28:31.561Z,12.71
2019-03-27T03:33:35.630Z,12.00
2019-03-27T03:38:42.168Z,13.00
2019-03-27T03:43:45.964Z,11.00
2019-03-27T03:48:52.096Z,13.71
2019-03-27T03:53:58.586Z,15.86
2019-03-27T03:59:02.763Z,12.83
2019-03-27T04:04:10.001Z,17.29
2019-03-27T04:09:14.979Z,16.86
2019-03-27T04:14:18.896Z,14.00
2019-03-27T04:19:25.219Z,15.57
2019-03-27T04:24:31.649Z,15.86
2019-03-27T04:29:35.491Z,16.25
2019-03-27T04:34:40.172Z,20.00
2019-03-27T04:39:45.942Z,18.57
2019-03-27T04:44:51.516Z,17.71
2019-03-27T04:49:57.415Z,17.00
2019-03-27T04:55:04.888Z,14.00
2019-03-27T05:00:09.872Z,20.25
2019-03-27T05:05:15.968Z,19.00
2019-03-27T05:10:20.941Z,28.00
2019-03-27T05:15:26.653Z,21.25
2019-03-27T05:20:30.683Z,32.00
2019-03-27T05:25:33.964Z,27.33
2019-03-27T05:30:37.320Z,30.67
2019-03-27T05:35:45.683Z,27.00
2019-03-27T05:40:50.515Z,22.00
2019-03-27T05:45:56.214Z,26.50
2019-03-27T05:51:02.116Z,19.14
2019-03-27T05:56:08.724Z,23.25
2019-03-27T06:01:15.346Z,22.62
2019-03-27T06:06:18.710Z,26.00
2019-03-27T06:11:24.406Z,23.12
2019-03-27T06:16:27.742Z,17.00
2019-03-27T06:21:33.606Z,25.00
2019-03-27T06:26:41.801Z,21.25
2019-03-27T06:31:49.063Z,22.75
2019-03-27T06:36:55.672Z,18.43
2019-03-27T06:42:00.499Z,15.71
2019-03-27T06:47:07.267Z,16.71
2019-03-27T06:52:11.355Z,17.60
2019-03-27T06:57:19.890Z,14.00
2019-03-27T07:02:28.591Z,22.87
2019-03-27T07:07:33.929Z,13.71
2019-03-27T07:12:37.424Z,23.00
2019-03-27T07:17:43.538Z,14.00
2019-03-27T07:22:51.058Z,12.29
2019-03-27T07:27:59.621Z,15.57
2019-03-27T07:33:04.752Z,15.71
2019-03-27T07:38:12.514Z,9.60
2019-03-27T07:43:16.167Z,12.67
2019-03-27T07:48:21.410Z,30.14
2019-03-27T07:53:25.897Z,11.00
2019-03-27T07:58:34.566Z,15.00
2019-03-27T08:03:39.784Z,23.25
2019-03-27T08:08:44.257Z,10.00
2019-03-27T08:13:49.457Z,10.29
2019-03-27T08:19:06.624Z,15.83
2019-03-27T08:24:00.147Z,11.00
2019-03-27T08:29:05.469Z,12.57
2019-03-27T08:34:10.826Z,18.29
2019-03-27T08:39:16.300Z,14.43
2019-03-27T08:44:19.937Z,15.00
2019-03-27T08:49:26.346Z,15.43
2019-03-27T08:54:35.080Z,15.27
2019-03-27T08:59:40.410Z,14.43
2019-03-27T09:04:45.814Z,27.25
2019-03-27T09:09:53.739Z,24.80
2019-03-27T09:14:59.907Z,13.86
2019-03-27T09:20:04.116Z,19.00
2019-03-27T09:25:09.080Z,16.86
2019-03-27T09:30:15.306Z,20.00
2019-03-27T09:35:19.082Z,15.00
2019-03-27T09:40:25.577Z,14.57
2019-03-27T09:45:31.008Z,16.00
2019-03-27T09:50:34.626Z,14.80
2019-03-27T09:55:39.111Z,13.14
2019-03-27T10:00:47.702Z,15.00
2019-03-27T10:05:52.278Z,14.00
2019-03-27T10:10:57.725Z,13.71
2019-03-27T10:16:02.953Z,13.71
2019-03-27T10:21:07.187Z,11.83
2019-03-27T10:26:11.506Z,11.67
2019-03-27T10:31:18.472Z,10.00
2019-03-27T10:36:24.459Z,11.17
2019-03-27T10:41:28.002Z,9.00
2019-03-27T10:46:32.539Z,14.00
2019-03-27T10:51:41.044Z,11.71
2019-03-27T10:56:48.815Z,14.71
2019-03-27T11:01:53.168Z,11.00
2019-03-27T11:06:59.902Z,22.00
2019-03-27T11:12:05.623Z,10.43
2019-03-27T11:17:12.552Z,12.00
2019-03-27T11:22:17.728Z,13.29
2019-03-27T11:27:24.687Z,13.33
2019-03-27T11:32:29.017Z,9.50
2019-03-27T11:37:35.190Z,11.00
2019-03-27T11:42:42.932Z,10.33
2019-03-27T11:47:46.567Z,11.83
2019-03-27T11:52:53.597Z,11.83
2019-03-27T11:57:58.067Z,13.00
2019-03-27T12:03:01.625Z,7.75
2019-03-27T12:08:06.127Z,12.29
2019-03-27T12:13:11.504Z,10.00
2019-03-27T12:18:14.682Z,11.75
2019-03-27T12:23:19.545Z,11.17
2019-03-27T12:28:27.510Z,19.43
2019-03-27T12:33:32.998Z,14.57
2019-03-27T12:38:37.546Z,13.00
2019-03-27T12:43:42.667Z,12.00
2019-03-27T12:48:47.411Z,11.83
2019-03-27T12:53:52.054Z,7.00
2019-03-27T12:58:59.548Z,12.67
2019-03-27T13:04:05.206Z,14.71
2019-03-27T13:09:13.235Z,15.00
2019-03-27T13:14:17.610Z,13.29
2019-03-27T13:19:26.151Z,13.29
2019-03-27T13:24:30.935Z,15.57
2019-03-27T13:29:34.758Z,16.00
2019-03-27T13:34:43.863Z,21.82
2019-03-27T13:39:50.854Z,25.88
2019-03-27T13:44:56.308Z,10.67
2019-03-27T13:49:59.110Z,25.67
2019-03-27T13:55:02.216Z,16.67
2019-03-27T14:00:06.610Z,14.00
2019-03-27T14:05:14.467Z,12.50
2019-03-27T14:10:18.684Z,5.00
2019-03-27T14:15:22.171Z,29.00
2019-03-27T14:20:30.890Z,15.17
2019-03-27T14:25:38.539Z,28.67
2019-03-27T14:30:50.876Z,16.43
2019-03-27T14:35:58.572Z,77.00
2019-03-27T14:41:03.593Z,42.33
2019-03-27T14:46:08.133Z,17.00
2019-03-27T14:51:14.591Z,14.86
2019-03-27T14:56:21.942Z,20.78
2019-03-27T15:01:31.112Z,28.87
2019-03-27T15:06:40.272Z,20.78
2019-03-27T15:11:45.832Z,19.43
2019-03-27T15:16:52.007Z,10.67
2019-03-27T15:21:57.226Z,16.00
2019-03-27T15:27:02.972Z,17.00
2019-03-27T15:32:08.967Z,11.67
2019-03-27T15:37:18.954Z,23.92
2019-03-27T15:42:26.882Z,59.91
2019-03-27T15:47:32.542Z,13.43
2019-03-27T15:52:37.111Z,16.00
2019-03-27T15:57:40.859Z,18.00
2019-03-27T16:02:46.816Z,15.29
2019-03-27T16:07:53.678Z,21.00
2019-03-27T16:12:57.227Z,27.25
2019-03-27T16:18:02.492Z,20.14
2019-03-27T16:23:11.917Z,19.62
2019-03-27T16:28:16.470Z,16.00
2019-03-27T16:33:19.987Z,16.75
2019-03-27T16:38:23.510Z,21.50
2019-03-27T16:43:28.817Z,17.00
2019-03-27T16:48:32.363Z,20.00
2019-03-27T16:53:41.249Z,23.00
2019-03-27T16:58:44.800Z,18.75
2019-03-27T17:03:50.356Z,25.71
2019-03-27T17:09:02.472Z,33.60
2019-03-27T17:14:10.048Z,29.87
2019-03-27T17:19:15.798Z,43.00
2019-03-27T17:24:21.810Z,26.86
2019-03-27T17:29:27.887Z,39.00
2019-03-27T17:34:35.136Z,49.78
2019-03-27T17:39:40.979Z,41.50
2019-03-27T17:44:51.951Z,40.88
2019-03-27T17:49:57.015Z,39.22
2019-03-27T17:55:05.175Z,45.29
2019-03-27T18:00:14.694Z,46.75
2019-03-27T18:05:21.234Z,47.75
2019-03-27T18:10:28.839Z,66.56
2019-03-27T18:15:32.993Z,71.00
2019-03-27T18:20:37.118Z,66.50
2019-03-27T18:25:43.728Z,49.75
2019-03-27T18:30:50.915Z,36.75
2019-03-27T18:35:57.754Z,46.75
2019-03-27T18:41:05.354Z,46.25
2019-03-27T18:46:08.771Z,46.00
2019-03-27T18:51:14.717Z,51.25
2019-03-27T18:56:17.802Z,54.00
2019-03-27T19:01:26.340Z,53.38
2019-03-27T19:06:34.077Z,53.63
2019-03-27T19:11:38.045Z,56.25
2019-03-27T19:16:42.448Z,59.25
2019-03-27T19:21:46.880Z,57.75
2019-03-27T19:26:50.884Z,69.33
2019-03-27T19:31:59.994Z,58.15
2019-03-27T19:37:09.017Z,55.60
2019-03-27T19:42:24.995Z,54.42
2019-03-27T19:47:38.002Z,57.00
2019-03-27T19:52:42.350Z,60.00
2019-03-27T19:57:48.491Z,59.14
2019-03-27T20:02:55.416Z,60.33
2019-03-27T20:08:04.726Z,59.90
2019-03-27T20:13:25.447Z,61.27
2019-03-27T20:18:29.704Z,61.67
2019-03-27T20:23:43.833Z,70.00
2019-03-27T20:29:00.638Z,60.74
2019-03-27T20:34:10.532Z,60.00
2019-03-27T20:39:23.096Z,124.60
2019-03-27T20:44:28.486Z,64.00
2019-03-27T20:49:38.429Z,70.29
2019-03-27T20:54:54.962Z,64.50
2019-03-27T20:59:52.618Z,62.00
2019-03-27T21:04:57.654Z,62.57
2019-03-27T21:10:04.941Z,57.38
2019-03-27T21:15:22.723Z,66.52
2019-03-27T21:20:27.910Z,65.29
2019-03-27T21:25:31.968Z,61.20
2019-03-27T21:30:41.266Z,57.25
2019-03-27T21:35:50.754Z,67.58
2019-03-27T21:41:06.108Z,62.60
2019-03-27T21:46:17.064Z,72.54
2019-03-27T21:51:29.641Z,72.19
2019-03-27T21:56:39.990Z,68.85
2019-03-27T22:01:45.858Z,60.00
2019-03-27T22:06:52.849Z,69.00
2019-03-27T22:12:08.298Z,73.17
2019-03-27T22:17:13.563Z,73.00
2019-03-27T22:22:22.441Z,74.87
2019-03-27T22:32:37.397Z,67.00
2019-03-27T22:37:45.233Z,58.00
2019-03-27T22:42:49.790Z,60.25
2019-03-27T22:47:56.739Z,61.37
2019-03-27T22:53:06.098Z,61.50
2019-03-27T22:58:14.314Z,59.50
2019-03-27T23:03:22.431Z,62.00
2019-03-27T23:08:26.262Z,60.00
2019-03-27T23:13:33.365Z,61.50
2019-03-27T23:18:43.317Z,63.22
2019-03-27T23:23:47.819Z,63.00
2019-03-27T23:28:56.648Z,58.50
2019-03-27T23:34:03.666Z,63.89
2019-03-27T23:39:12.293Z,65.25
2019-03-27T23:44:22.570Z,62.09
2019-03-27T23:49:31.333Z,62.50
2019-03-27T23:54:40.717Z,59.83
2019-03-27T23:59:47.006Z,60.00
